CheckWX is a tool to help pilots better visualize weather data.  It is not intended as a substitute for an official pre-flight weather briefing.

18:35:46 UTC

KEFD TAF
Ellington Airport
Houston, Texas, USA
TAF KEFD 271200Z 2712/2818 VRB06KT 4800 BR OVC005 QNH2996INS BECMG 2716/2717 10006KT 9999 NSW SCT250 QNH2990INS BECMG 2803/2804 13006KT 4800 BR OVC005 QNH2994INS BECMG 2812/2813 13009KT 8000 -SHRA OVC008 QNH2990INS TEMPO 2812/2817 15012G18KT 6000 -TSRA OVC006CB TX22/2720Z TN12/2712Z

Jan-27@
12:00 UTC

Jan-27 @ 12:00 UTC

Jan-27@
16:00 UTC

Jan-27 @ 16:00 UTC

TAF KEFD 271200Z 2712/2818 VRB06KT 4800 BR OVC005 QNH2996INS

Expired

Wind
  • Variable at 6 KTS
Conditions
Mist
Cloud Levels
  • Overcast at 500' AGL

Jan-27@
16:00 UTC

Jan-27 @ 16:00 UTC

Jan-28@
03:00 UTC

Jan-28 @ 03:00 UTC

BECMG 2716/2717 10006KT 9999 NSW SCT250 QNH2990INS

Becoming

Becoming Conditions expected by Mon, Jan 27, 2020 @ 17:00 UTC

Wind
  • 100° at 6 KTS
Conditions
No significant weather
Cloud Levels
  • Scattered at 25,000' AGL

Jan-28@
03:00 UTC

Jan-28 @ 03:00 UTC

Jan-28@
12:00 UTC

Jan-28 @ 12:00 UTC

BECMG 2803/2804 13006KT 4800 BR OVC005 QNH2994INS

Becoming

Becoming Conditions expected by Tue, Jan 28, 2020 @ 04:00 UTC

Wind
  • 130° at 6 KTS
Conditions
Mist
Cloud Levels
  • Overcast at 500' AGL

Jan-28@
12:00 UTC

Jan-28 @ 12:00 UTC

Jan-28@
17:00 UTC

Jan-28 @ 17:00 UTC

TEMPO 2812/2817 15012G18KT 6000 -TSRA OVC006CB TX22/2720Z TN12/2712Z

Temporary

Temporary Changes expected for less than half the time period

Wind
  • 150° at 12 KTS
  • {Gusting to 18 KTS
Conditions
Light Thunderstorm, Light Rain
Cloud Levels
  • Overcast at 600' AGL

Jan-28@
12:00 UTC

Jan-28 @ 12:00 UTC

Jan-28@
18:00 UTC

Jan-28 @ 18:00 UTC

BECMG 2812/2813 13009KT 8000 -SHRA OVC008 QNH2990INS

Becoming

Becoming Conditions expected by Tue, Jan 28, 2020 @ 13:00 UTC

Wind
  • 130° at 9 KTS
Conditions
Light Rain
Cloud Levels
  • Overcast at 800' AGL